sensor_id;sensor_type;location;lat;lon;timestamp;pressure;altitude;pressure_sealevel;temperature;humidity
46946;BME280;32679;40.810;14.498;2022-07-18T00:02:10;100416.72;;;26.21;55.05
46946;BME280;32679;40.810;14.498;2022-07-18T00:04:38;100416.84;;;26.18;55.47
46946;BME280;32679;40.810;14.498;2022-07-18T00:07:03;100412.66;;;26.09;55.50
46946;BME280;32679;40.810;14.498;2022-07-18T00:09:29;100410.53;;;26.23;54.98
46946;BME280;32679;40.810;14.498;2022-07-18T00:11:54;100414.13;;;26.14;54.65
46946;BME280;32679;40.810;14.498;2022-07-18T00:14:22;100407.53;;;26.04;54.93
46946;BME280;32679;40.810;14.498;2022-07-18T00:16:48;100405.38;;;26.08;54.53
46946;BME280;32679;40.810;14.498;2022-07-18T00:19:15;100408.22;;;26.08;54.69
46946;BME280;32679;40.810;14.498;2022-07-18T00:21:44;100406.03;;;26.12;54.40
46946;BME280;32679;40.810;14.498;2022-07-18T00:24:13;100406.34;;;26.15;54.34
46946;BME280;32679;40.810;14.498;2022-07-18T00:26:40;100402.19;;;26.06;54.76
46946;BME280;32679;40.810;14.498;2022-07-18T00:29:06;100400.22;;;25.94;54.85
46946;BME280;32679;40.810;14.498;2022-07-18T00:31:35;100397.47;;;26.12;54.24
46946;BME280;32679;40.810;14.498;2022-07-18T00:34:03;100394.75;;;26.09;54.18
46946;BME280;32679;40.810;14.498;2022-07-18T00:36:30;100397.16;;;26.10;54.46
46946;BME280;32679;40.810;14.498;2022-07-18T00:38:56;100404.94;;;26.10;54.26
46946;BME280;32679;40.810;14.498;2022-07-18T00:41:25;100399.53;;;26.12;54.03
46946;BME280;32679;40.810;14.498;2022-07-18T00:43:51;100406.53;;;26.20;53.71
46946;BME280;32679;40.810;14.498;2022-07-18T00:46:24;100400.06;;;26.20;53.16
46946;BME280;32679;40.810;14.498;2022-07-18T00:48:53;100390.38;;;26.17;52.85
46946;BME280;32679;40.810;14.498;2022-07-18T00:51:20;100401.44;;;26.15;53.28
46946;BME280;32679;40.810;14.498;2022-07-18T00:53:49;100393.97;;;26.08;53.62
46946;BME280;32679;40.810;14.498;2022-07-18T00:56:18;100394.91;;;26.05;53.53
46946;BME280;32679;40.810;14.498;2022-07-18T00:58:45;100392.97;;;26.02;53.35
46946;BME280;32679;40.810;14.498;2022-07-18T01:01:11;100363.56;;;25.83;53.05
46946;BME280;32679;40.810;14.498;2022-07-18T01:03:55;100403.25;;;26.00;53.18
46946;BME280;32679;40.810;14.498;2022-07-18T01:06:21;100405.38;;;26.08;53.25
46946;BME280;32679;40.810;14.498;2022-07-18T01:08:47;100402.59;;;25.96;53.39
46946;BME280;32679;40.810;14.498;2022-07-18T01:11:18;100401.22;;;26.00;52.93
46946;BME280;32679;40.810;14.498;2022-07-18T01:13:44;100403.38;;;25.96;53.28
46946;BME280;32679;40.810;14.498;2022-07-18T01:16:10;100392.09;;;25.93;53.58
46946;BME280;32679;40.810;14.498;2022-07-18T01:18:44;100396.41;;;25.97;53.23
46946;BME280;32679;40.810;14.498;2022-07-18T01:21:09;100387.47;;;25.86;53.55
46946;BME280;32679;40.810;14.498;2022-07-18T01:23:35;100393.97;;;25.86;53.59
46946;BME280;32679;40.810;14.498;2022-07-18T01:26:03;100399.19;;;25.88;54.14
46946;BME280;32679;40.810;14.498;2022-07-18T01:28:29;100396.50;;;25.84;53.88
46946;BME280;32679;40.810;14.498;2022-07-18T01:30:57;100406.16;;;25.87;53.94
46946;BME280;32679;40.810;14.498;2022-07-18T01:33:23;100402.19;;;25.84;54.29
46946;BME280;32679;40.810;14.498;2022-07-18T01:35:48;100405.28;;;25.99;54.06
46946;BME280;32679;40.810;14.498;2022-07-18T01:38:14;100401.44;;;25.93;54.13
46946;BME280;32679;40.810;14.498;2022-07-18T01:40:40;100407.34;;;25.99;53.95
46946;BME280;32679;40.810;14.498;2022-07-18T01:43:06;100404.50;;;25.99;54.33
46946;BME280;32679;40.810;14.498;2022-07-18T01:45:34;100405.28;;;25.99;54.30
46946;BME280;32679;40.810;14.498;2022-07-18T01:48:00;100403.13;;;26.03;54.17
46946;BME280;32679;40.810;14.498;2022-07-18T01:50:26;100401.84;;;26.04;53.73
46946;BME280;32679;40.810;14.498;2022-07-18T01:52:57;100404.56;;;26.08;54.38
46946;BME280;32679;40.810;14.498;2022-07-18T01:55:25;100404.06;;;26.00;54.30
46946;BME280;32679;40.810;14.498;2022-07-18T01:57:50;100403.13;;;26.03;53.50
46946;BME280;32679;40.810;14.498;2022-07-18T02:00:18;100412.41;;;25.95;53.55
46946;BME280;32679;40.810;14.498;2022-07-18T02:02:44;100398.88;;;25.86;54.51
46946;BME280;32679;40.810;14.498;2022-07-18T02:05:09;100399.28;;;25.97;53.34
46946;BME280;32679;40.810;14.498;2022-07-18T02:07:37;100406.25;;;25.96;53.33
46946;BME280;32679;40.810;14.498;2022-07-18T02:10:12;100399.41;;;25.94;53.38
46946;BME280;32679;40.810;14.498;2022-07-18T02:12:39;100404.69;;;26.04;52.42
46946;BME280;32679;40.810;14.498;2022-07-18T02:15:06;100392.09;;;25.93;53.01
46946;BME280;32679;40.810;14.498;2022-07-18T02:17:33;100394.63;;;25.91;52.53
46946;BME280;32679;40.810;14.498;2022-07-18T02:20:02;100394.09;;;25.83;52.44
46946;BME280;32679;40.810;14.498;2022-07-18T02:22:28;100384.94;;;25.88;52.11
46946;BME280;32679;40.810;14.498;2022-07-18T02:24:53;100385.34;;;25.99;52.00
46946;BME280;32679;40.810;14.498;2022-07-18T02:27:21;100388.66;;;25.98;50.96
46946;BME280;32679;40.810;14.498;2022-07-18T02:29:47;100395.50;;;26.00;51.50
46946;BME280;32679;40.810;14.498;2022-07-18T02:32:13;100369.09;;;25.87;50.73
46946;BME280;32679;40.810;14.498;2022-07-18T02:34:39;100365.28;;;25.81;50.72
46946;BME280;32679;40.810;14.498;2022-07-18T02:37:09;100390.78;;;25.84;50.91
46946;BME280;32679;40.810;14.498;2022-07-18T02:39:37;100391.00;;;25.90;50.71
46946;BME280;32679;40.810;14.498;2022-07-18T02:42:05;100394.63;;;25.91;50.14
46946;BME280;32679;40.810;14.498;2022-07-18T02:44:31;100386.41;;;25.93;50.01
46946;BME280;32679;40.810;14.498;2022-07-18T02:47:02;100390.72;;;25.97;49.58
46946;BME280;32679;40.810;14.498;2022-07-18T02:49:28;100385.28;;;25.90;49.90
46946;BME280;32679;40.810;14.498;2022-07-18T02:52:01;100402.78;;;26.01;48.81
46946;BME280;32679;40.810;14.498;2022-07-18T02:54:28;100395.53;;;26.09;48.67
46946;BME280;32679;40.810;14.498;2022-07-18T02:56:55;100390.00;;;26.06;48.79
46946;BME280;32679;40.810;14.498;2022-07-18T02:59:24;100386.28;;;25.96;48.59
46946;BME280;32679;40.810;14.498;2022-07-18T03:01:50;100387.88;;;25.97;48.33
46946;BME280;32679;40.810;14.498;2022-07-18T03:04:17;100395.53;;;26.09;47.54
46946;BME280;32679;40.810;14.498;2022-07-18T03:06:45;100391.00;;;26.12;47.46
46946;BME280;32679;40.810;14.498;2022-07-18T03:09:13;100398.34;;;26.00;47.41
46946;BME280;32679;40.810;14.498;2022-07-18T03:11:39;100395.94;;;25.99;47.70
46946;BME280;32679;40.810;14.498;2022-07-18T03:14:11;100395.91;;;25.90;47.82
46946;BME280;32679;40.810;14.498;2022-07-18T03:16:36;100389.41;;;25.89;48.19
46946;BME280;32679;40.810;14.498;2022-07-18T03:19:04;100392.09;;;25.93;48.09
46946;BME280;32679;40.810;14.498;2022-07-18T03:21:32;100392.69;;;25.88;48.24
46946;BME280;32679;40.810;14.498;2022-07-18T03:23:58;100395.22;;;26.07;47.43
46946;BME280;32679;40.810;14.498;2022-07-18T03:26:24;100395.22;;;26.07;47.54
46946;BME280;32679;40.810;14.498;2022-07-18T03:28:49;100387.16;;;26.06;47.66
46946;BME280;32679;40.810;14.498;2022-07-18T03:31:15;100394.25;;;26.01;47.73
46946;BME280;32679;40.810;14.498;2022-07-18T03:33:40;100389.53;;;26.07;47.17
46946;BME280;32679;40.810;14.498;2022-07-18T03:36:08;100394.94;;;26.15;47.19
46946;BME280;32679;40.810;14.498;2022-07-18T03:38:34;100400.63;;;26.05;47.19
46946;BME280;32679;40.810;14.498;2022-07-18T03:41:01;100400.53;;;25.96;47.12
46946;BME280;32679;40.810;14.498;2022-07-18T03:43:30;100395.81;;;26.02;47.01
46946;BME280;32679;40.810;14.498;2022-07-18T03:45:56;100397.75;;;26.05;47.07
46946;BME280;32679;40.810;14.498;2022-07-18T03:48:22;100392.66;;;26.00;46.70
46946;BME280;32679;40.810;14.498;2022-07-18T03:50:49;100397.28;;;26.07;46.26
46946;BME280;32679;40.810;14.498;2022-07-18T03:53:15;100395.94;;;25.99;46.55
46946;BME280;32679;40.810;14.498;2022-07-18T03:55:40;100408.88;;;26.12;46.46
46946;BME280;32679;40.810;14.498;2022-07-18T03:58:06;100391.47;;;26.10;46.40
46946;BME280;32679;40.810;14.498;2022-07-18T04:00:31;100400.22;;;26.16;45.51
46946;BME280;32679;40.810;14.498;2022-07-18T04:02:59;100374.16;;;26.05;45.75
46946;BME280;32679;40.810;14.498;2022-07-18T04:05:27;100391.47;;;26.10;45.84
46946;BME280;32679;40.810;14.498;2022-07-18T04:07:53;100392.63;;;26.22;45.58
46946;BME280;32679;40.810;14.498;2022-07-18T04:10:23;100399.81;;;26.27;45.68
46946;BME280;32679;40.810;14.498;2022-07-18T04:12:51;100397.41;;;26.25;45.48
46946;BME280;32679;40.810;14.498;2022-07-18T04:15:21;100403.63;;;26.33;45.67
46946;BME280;32679;40.810;14.498;2022-07-18T04:17:47;100396.50;;;26.59;44.99
46946;BME280;32679;40.810;14.498;2022-07-18T04:20:16;100399.97;;;26.95;44.18
46946;BME280;32679;40.810;14.498;2022-07-18T04:25:22;100396.78;;;27.69;42.97
46946;BME280;32679;40.810;14.498;2022-07-18T04:27:51;100403.78;;;28.05;42.31
46946;BME280;32679;40.810;14.498;2022-07-18T04:30:22;100397.41;;;28.38;41.60
46946;BME280;32679;40.810;14.498;2022-07-18T04:32:48;100398.06;;;28.75;40.92
46946;BME280;32679;40.810;14.498;2022-07-18T04:35:14;100403.47;;;29.15;40.25
46946;BME280;32679;40.810;14.498;2022-07-18T04:37:40;100389.38;;;29.50;39.42
46946;BME280;32679;40.810;14.498;2022-07-18T04:40:07;100397.59;;;29.82;39.02
46946;BME280;32679;40.810;14.498;2022-07-18T04:42:34;100399.53;;;30.14;37.98
46946;BME280;32679;40.810;14.498;2022-07-18T04:44:59;100402.84;;;30.37;36.90
46946;BME280;32679;40.810;14.498;2022-07-18T04:47:30;100417.28;;;30.72;36.96
46946;BME280;32679;40.810;14.498;2022-07-18T04:49:56;100409.69;;;31.04;36.27
46946;BME280;32679;40.810;14.498;2022-07-18T04:52:23;100402.84;;;31.37;35.81
46946;BME280;32679;40.810;14.498;2022-07-18T04:54:52;100383.75;;;31.54;35.43
46946;BME280;32679;40.810;14.498;2022-07-18T04:57:19;100405.59;;;31.87;34.63
46946;BME280;32679;40.810;14.498;2022-07-18T04:59:45;100399.34;;;32.14;34.33
46946;BME280;32679;40.810;14.498;2022-07-18T05:02:11;100409.72;;;32.58;33.92
46946;BME280;32679;40.810;14.498;2022-07-18T05:04:37;100406.53;;;32.82;33.43
46946;BME280;32679;40.810;14.498;2022-07-18T05:07:04;100402.97;;;32.93;32.73
46946;BME280;32679;40.810;14.498;2022-07-18T05:09:30;100411.94;;;33.06;33.04
46946;BME280;32679;40.810;14.498;2022-07-18T05:11:55;100416.06;;;33.36;32.24
46946;BME280;32679;40.810;14.498;2022-07-18T05:14:26;100407.66;;;33.38;32.23
46946;BME280;32679;40.810;14.498;2022-07-18T05:16:52;100412.63;;;33.92;31.88
46946;BME280;32679;40.810;14.498;2022-07-18T05:19:20;100411.41;;;34.04;31.57
46946;BME280;32679;40.810;14.498;2022-07-18T05:21:51;100414.00;;;34.08;31.68
46946;BME280;32679;40.810;14.498;2022-07-18T05:24:19;100425.13;;;34.49;31.06
46946;BME280;32679;40.810;14.498;2022-07-18T05:26:45;100426.19;;;35.02;30.61
46946;BME280;32679;40.810;14.498;2022-07-18T05:29:10;100431.72;;;35.05;30.14
46946;BME280;32679;40.810;14.498;2022-07-18T05:31:40;100431.91;;;35.24;30.23
46946;BME280;32679;40.810;14.498;2022-07-18T05:34:07;100433.75;;;35.27;30.78
46946;BME280;32679;40.810;14.498;2022-07-18T05:36:33;100436.66;;;35.27;30.92
46946;BME280;32679;40.810;14.498;2022-07-18T05:38:58;100427.91;;;35.55;30.00
46946;BME280;32679;40.810;14.498;2022-07-18T05:41:26;100438.81;;;35.96;29.22
46946;BME280;32679;40.810;14.498;2022-07-18T05:43:52;100445.09;;;36.00;28.16
46946;BME280;32679;40.810;14.498;2022-07-18T05:46:20;100446.63;;;36.12;28.07
46946;BME280;32679;40.810;14.498;2022-07-18T05:48:46;100440.25;;;36.19;27.96
46946;BME280;32679;40.810;14.498;2022-07-18T05:51:12;100437.16;;;36.47;27.39
46946;BME280;32679;40.810;14.498;2022-07-18T05:53:37;100444.13;;;36.33;27.43
46946;BME280;32679;40.810;14.498;2022-07-18T05:56:06;100444.72;;;36.62;27.05
46946;BME280;32679;40.810;14.498;2022-07-18T05:58:34;100435.84;;;36.49;26.59
46946;BME280;32679;40.810;14.498;2022-07-18T06:00:59;100443.53;;;36.40;27.62
46946;BME280;32679;40.810;14.498;2022-07-18T06:03:24;100443.34;;;36.68;27.45
46946;BME280;32679;40.810;14.498;2022-07-18T06:05:50;100443.59;;;37.01;27.39
46946;BME280;32679;40.810;14.498;2022-07-18T06:08:21;100440.38;;;36.74;26.87
46946;BME280;32679;40.810;14.498;2022-07-18T06:10:46;100449.50;;;36.54;27.53
46946;BME280;32679;40.810;14.498;2022-07-18T06:13:14;100446.91;;;36.80;26.89
46946;BME280;32679;40.810;14.498;2022-07-18T06:15:40;100448.44;;;36.92;26.88
46946;BME280;32679;40.810;14.498;2022-07-18T06:18:05;100432.91;;;36.84;26.98
46946;BME280;32679;40.810;14.498;2022-07-18T06:20:34;100434.81;;;36.46;27.18
46946;BME280;32679;40.810;14.498;2022-07-18T06:22:59;100443.44;;;36.10;27.99
46946;BME280;32679;40.810;14.498;2022-07-18T06:25:27;100440.53;;;36.87;27.98
46946;BME280;32679;40.810;14.498;2022-07-18T06:27:53;100439.88;;;36.70;27.93
46946;BME280;32679;40.810;14.498;2022-07-18T06:30:20;100441.13;;;37.10;27.51
46946;BME280;32679;40.810;14.498;2022-07-18T06:32:48;100432.69;;;37.80;26.00
46946;BME280;32679;40.810;14.498;2022-07-18T06:35:13;100443.47;;;37.85;26.58
46946;BME280;32679;40.810;14.498;2022-07-18T06:37:39;100444.19;;;38.10;26.21
46946;BME280;32679;40.810;14.498;2022-07-18T06:40:05;100439.41;;;37.51;27.44
46946;BME280;32679;40.810;14.498;2022-07-18T06:42:31;100441.06;;;37.89;26.62
46946;BME280;32679;40.810;14.498;2022-07-18T06:44:56;100442.38;;;36.90;26.77
46946;BME280;32679;40.810;14.498;2022-07-18T06:47:22;100444.13;;;36.33;27.40
46946;BME280;32679;40.810;14.498;2022-07-18T06:49:47;100443.09;;;36.25;27.41
46946;BME280;32679;40.810;14.498;2022-07-18T06:52:16;100440.19;;;36.96;27.10
46946;BME280;32679;40.810;14.498;2022-07-18T06:54:42;100443.03;;;37.75;25.51
46946;BME280;32679;40.810;14.498;2022-07-18T06:57:07;100444.31;;;37.07;26.33
46946;BME280;32679;40.810;14.498;2022-07-18T06:59:35;100450.22;;;36.24;27.67
46946;BME280;32679;40.810;14.498;2022-07-18T07:02:01;100426.63;;;35.39;28.22
46946;BME280;32679;40.810;14.498;2022-07-18T07:04:30;100441.84;;;35.57;27.10
46946;BME280;32679;40.810;14.498;2022-07-18T07:06:58;100436.34;;;35.36;27.97
46946;BME280;32679;40.810;14.498;2022-07-18T07:09:26;100437.44;;;35.22;28.02
46946;BME280;32679;40.810;14.498;2022-07-18T07:11:55;100431.28;;;35.65;27.50
46946;BME280;32679;40.810;14.498;2022-07-18T07:14:20;100429.28;;;36.07;26.92
46946;BME280;32679;40.810;14.498;2022-07-18T07:16:46;100436.44;;;36.36;26.15
46946;BME280;32679;40.810;14.498;2022-07-18T07:19:11;100431.81;;;36.93;25.73
46946;BME280;32679;40.810;14.498;2022-07-18T07:21:39;100431.47;;;37.94;25.01
46946;BME280;32679;40.810;14.498;2022-07-18T07:24:05;100427.81;;;37.51;24.95
46946;BME280;32679;40.810;14.498;2022-07-18T07:26:31;100427.72;;;38.37;24.40
46946;BME280;32679;40.810;14.498;2022-07-18T07:28:56;100429.00;;;38.55;24.40
46946;BME280;32679;40.810;14.498;2022-07-18T07:31:27;100424.47;;;38.73;24.10
46946;BME280;32679;40.810;14.498;2022-07-18T07:33:55;100420.91;;;39.25;23.12
46946;BME280;32679;40.810;14.498;2022-07-18T07:36:20;100429.75;;;39.33;23.11
46946;BME280;32679;40.810;14.498;2022-07-18T07:38:49;100432.19;;;39.95;21.96
46946;BME280;32679;40.810;14.498;2022-07-18T07:41:18;100430.59;;;39.94;22.83
46946;BME280;32679;40.810;14.498;2022-07-18T07:43:46;100433.34;;;40.26;22.77
46946;BME280;32679;40.810;14.498;2022-07-18T07:46:11;100434.03;;;40.53;21.76
46946;BME280;32679;40.810;14.498;2022-07-18T07:48:38;100427.09;;;40.22;22.51
46946;BME280;32679;40.810;14.498;2022-07-18T07:51:04;100414.53;;;39.80;22.64
46946;BME280;32679;40.810;14.498;2022-07-18T07:53:35;100415.84;;;39.52;23.08
46946;BME280;32679;40.810;14.498;2022-07-18T07:56:03;100419.03;;;38.83;23.73
46946;BME280;32679;40.810;14.498;2022-07-18T07:58:34;100419.00;;;39.81;22.84
46946;BME280;32679;40.810;14.498;2022-07-18T08:01:00;100423.09;;;39.06;23.35
46946;BME280;32679;40.810;14.498;2022-07-18T08:03:28;100421.91;;;38.37;24.21
46946;BME280;32679;40.810;14.498;2022-07-18T08:05:55;100422.66;;;38.19;24.39
46946;BME280;32679;40.810;14.498;2022-07-18T08:08:20;100417.25;;;38.29;23.84
46946;BME280;32679;40.810;14.498;2022-07-18T08:10:50;100417.34;;;38.42;23.38
46946;BME280;32679;40.810;14.498;2022-07-18T08:13:18;100423.09;;;39.06;23.01
46946;BME280;32679;40.810;14.498;2022-07-18T08:15:46;100426.34;;;39.02;22.53
46946;BME280;32679;40.810;14.498;2022-07-18T08:18:12;100428.13;;;38.60;22.67
46946;BME280;32679;40.810;14.498;2022-07-18T08:20:37;100403.41;;;38.67;22.16
46946;BME280;32679;40.810;14.498;2022-07-18T08:23:09;100402.53;;;39.57;22.37
46946;BME280;32679;40.810;14.498;2022-07-18T08:25:40;100419.91;;;40.23;20.76
46946;BME280;32679;40.810;14.498;2022-07-18T08:28:09;100420.34;;;39.67;21.47
46946;BME280;32679;40.810;14.498;2022-07-18T08:30:39;100423.44;;;39.02;22.42
46946;BME280;32679;40.810;14.498;2022-07-18T08:33:06;100426.72;;;39.25;22.22
46946;BME280;32679;40.810;14.498;2022-07-18T08:35:32;100423.44;;;40.09;21.71
46946;BME280;32679;40.810;14.498;2022-07-18T08:38:01;100420.56;;;39.82;21.69
46946;BME280;32679;40.810;14.498;2022-07-18T08:40:30;100427.28;;;39.24;22.84
46946;BME280;32679;40.810;14.498;2022-07-18T08:42:57;100421.84;;;38.56;23.56
46946;BME280;32679;40.810;14.498;2022-07-18T08:45:24;100423.47;;;38.38;23.34
46946;BME280;32679;40.810;14.498;2022-07-18T08:47:50;100431.44;;;38.83;23.08
46946;BME280;32679;40.810;14.498;2022-07-18T08:50:17;100427.91;;;39.03;22.80
46946;BME280;32679;40.810;14.498;2022-07-18T08:52:44;100432.84;;;39.09;22.88
46946;BME280;32679;40.810;14.498;2022-07-18T08:55:10;100425.91;;;39.12;22.53
46946;BME280;32679;40.810;14.498;2022-07-18T08:57:35;100437.81;;;38.49;22.53
46946;BME280;32679;40.810;14.498;2022-07-18T09:00:05;100432.06;;;38.63;22.83
46946;BME280;32679;40.810;14.498;2022-07-18T09:02:32;100431.16;;;38.36;23.16
46946;BME280;32679;40.810;14.498;2022-07-18T09:05:00;100438.38;;;38.80;23.28
46946;BME280;32679;40.810;14.498;2022-07-18T09:07:34;100429.03;;;38.68;22.61
46946;BME280;32679;40.810;14.498;2022-07-18T09:10:04;100431.72;;;39.12;22.68
46946;BME280;32679;40.810;14.498;2022-07-18T09:12:30;100438.50;;;40.20;21.54
46946;BME280;32679;40.810;14.498;2022-07-18T09:15:08;100427.50;;;39.79;21.66
46946;BME280;32679;40.810;14.498;2022-07-18T09:17:40;100438.63;;;40.91;20.67
46946;BME280;32679;40.810;14.498;2022-07-18T09:20:11;100438.75;;;40.22;21.16
46946;BME280;32679;40.810;14.498;2022-07-18T09:22:49;100424.81;;;39.41;21.73
46946;BME280;32679;40.810;14.498;2022-07-18T09:25:20;100428.84;;;39.78;21.41
